Commerce Township, MI (48382)

06:40 EST 1. Únor 2015 (GMT -0500)
Lower Straits Lake | Change Station
CLOSE
Current Station
Osobní povětrnostní stanice
Location: Commerce Township, MI
Nadmořská výška: 938 ft
Poblíž povětrnostní stanice

Výška 938 ft 42.59 °N, 83.47 °W | Updated 8 minutes ago

Sníh
Sníh
22.1 °F
Pocit jako 22 °F
S
1.6
Vítr proměnlivý Vítr od východní
Gusts 10.7 mil/h

Dnes
Vysoké -- | Nízké -- °F
--% Možnost srážek
Včera
Vysoké -- | Nízké -- °F
Precip. -- inčů
7:48 AM 5:47 PM
Dorůstající měsíc, 94% visible
Tlak 30.15 inčů
Viditelnost 1.8 mílí
Zataženo Nemnoho 800 ft
Zataženo 2900 ft
Ochlazování větrem 22 °F
Rosný bod 17 °F
Vlhkost 79%
Dešťové srážky 0.02 inčů
Sněhová pokrývka Není k dispozici
UV záření 0 ze 12
Pyl .10 ze 12
Kvalita ovzduší Není k dispozici
Flu Activity Není k dispozici
SPECI KPTK 011125Z 03007KT 1 3/4SM -SN BR FEW008 OVC029 M06/M08 A3015 RMK AO2 P0000 T10611083

More Conditions Fewer Conditions

Tlak 30.15 inčů
Viditelnost 1.8 mílí
Zataženo Nemnoho 800 ft
Zataženo 2900 ft
Ochlazování větrem 22 °F
Rosný bod 17 °F
Vlhkost 79%
Dešťové srážky 0.02 inčů
Sněhová pokrývka Není k dispozici
UV záření 0 ze 12
Pyl .10 ze 12
Kvalita ovzduší Není k dispozici
Flu Activity Není k dispozici
SPECI KPTK 011125Z 03007KT 1 3/4SM -SN BR FEW008 OVC029 M06/M08 A3015 RMK AO2 P0000 T10611083

More Conditions Fewer Conditions

10-Day Weather Forecast

Almanac

Astronomie

Feb. 01, 2015 Východ Západ
Skutečný čas
Občanský soumrak
Námořní soumrak
Astronomický soumrak
Měsíc
Délka denního světla
Délka dne
Tomorrow will be .
, % of the Moon is Illuminated

Dnešní extrémy

State Highs State Lows

Community

WunderPhotos

Upload Photos

1,792,346 snímků staženo!

WunderBlogs® & News

Nearby

Kvalita ovzduší

  Kvalita ovzduší Index kvality ovzduší Polutant
Not available.

Výška sněhu

Station Hloubka Nadmořská výška

Seizmická činnost

Město Distance Mag. Čas & datum
Minimální zobrazený rozsah je 2.5.

Pobřežní teplota vody

Lokalita Teplota

Poblíž povětrnostní stanice